createdAt,value
2017-08-12T08:58:33.781Z,15.40
2017-08-12T09:01:02.578Z,16.10
2017-08-12T09:03:33.366Z,16.10
2017-08-12T09:06:00.949Z,16.40
2017-08-12T09:08:31.275Z,16.40
2017-08-12T09:10:59.204Z,16.00
2017-08-12T09:13:26.706Z,16.00
2017-08-12T09:15:55.207Z,16.30
2017-08-12T09:18:23.124Z,16.40
2017-08-12T09:20:50.732Z,16.90
2017-08-12T09:23:18.269Z,17.40
2017-08-12T09:25:46.545Z,18.10
2017-08-12T09:28:14.999Z,18.70
2017-08-12T09:30:42.493Z,18.60
2017-08-12T09:33:10.018Z,18.60
2017-08-12T09:35:37.784Z,18.30
2017-08-12T09:38:05.476Z,17.90
2017-08-12T09:40:33.094Z,18.00
2017-08-12T09:43:00.613Z,18.00
2017-08-12T09:45:28.113Z,18.10
2017-08-12T09:47:55.616Z,18.10
2017-08-12T09:50:23.136Z,18.20
2017-08-12T09:52:51.414Z,18.20
2017-08-12T09:55:19.324Z,18.20
2017-08-12T09:57:46.964Z,18.00
2017-08-12T10:00:14.480Z,17.20
2017-08-12T10:02:43.105Z,17.00
2017-08-12T10:05:10.925Z,16.90
2017-08-12T10:07:38.424Z,17.00
2017-08-12T10:10:06.213Z,16.90
2017-08-12T10:12:33.996Z,17.30
2017-08-12T10:15:01.620Z,17.30
2017-08-12T10:17:29.425Z,17.30
2017-08-12T10:19:56.929Z,17.10
2017-08-12T10:22:24.721Z,17.00
2017-08-12T10:24:52.788Z,16.70
2017-08-12T10:27:20.480Z,16.30
2017-08-12T10:29:48.307Z,16.00
2017-08-12T10:32:16.281Z,16.00
2017-08-12T10:34:44.137Z,16.10
2017-08-12T10:37:11.665Z,16.30
2017-08-12T10:39:39.177Z,16.60
2017-08-12T10:42:06.706Z,16.80
2017-08-12T10:44:34.478Z,16.90
2017-08-12T10:47:01.984Z,17.10
2017-08-12T10:49:30.816Z,17.70
2017-08-12T10:51:58.371Z,17.70
2017-08-12T10:54:25.893Z,17.40
2017-08-12T10:56:54.306Z,16.90
2017-08-12T10:59:22.251Z,16.90
2017-08-12T11:01:49.877Z,16.60
2017-08-12T11:04:17.401Z,16.60
2017-08-12T11:06:44.909Z,16.30
2017-08-12T11:09:13.642Z,15.90
2017-08-12T11:11:41.401Z,15.90
2017-08-12T11:14:09.006Z,15.70
2017-08-12T11:16:37.277Z,15.70
2017-08-12T11:19:05.541Z,15.60
2017-08-12T11:21:33.062Z,15.60
2017-08-12T11:24:00.902Z,15.40
2017-08-12T11:26:28.780Z,15.40
2017-08-12T11:28:56.274Z,15.40
2017-08-12T11:31:23.981Z,15.30
2017-08-12T11:33:51.906Z,15.20
2017-08-12T11:36:19.427Z,15.10
2017-08-12T11:38:46.924Z,14.90
2017-08-12T11:41:14.664Z,14.90
2017-08-12T11:43:42.169Z,14.90
2017-08-12T11:46:09.802Z,15.10
2017-08-12T11:48:37.804Z,15.20
2017-08-12T11:51:05.301Z,15.40
2017-08-12T11:53:33.141Z,15.40
2017-08-12T11:56:01.333Z,15.30
2017-08-12T11:58:28.878Z,15.10
2017-08-12T12:03:24.323Z,15.30
2017-08-12T12:05:51.933Z,15.50
2017-08-12T12:08:19.600Z,15.90
2017-08-12T12:10:47.996Z,16.20
2017-08-12T12:13:15.980Z,16.30
2017-08-12T12:15:43.476Z,16.50
2017-08-12T12:18:12.126Z,16.30
2017-08-12T12:20:39.909Z,16.30
2017-08-12T12:23:07.577Z,16.20
2017-08-12T12:25:35.921Z,16.50
2017-08-12T12:28:03.677Z,17.00
2017-08-12T12:30:31.325Z,17.20
2017-08-12T12:32:59.021Z,17.30
2017-08-12T12:35:26.860Z,17.30
2017-08-12T12:37:54.364Z,17.20
2017-08-12T12:40:22.670Z,16.60
2017-08-12T12:42:50.564Z,16.50
2017-08-12T12:45:18.260Z,16.30
2017-08-12T12:47:46.383Z,16.70
2017-08-12T12:50:15.186Z,16.80
2017-08-12T12:52:43.376Z,17.10
2017-08-12T12:55:12.582Z,17.30
2017-08-12T12:57:40.649Z,17.20
2017-08-12T13:00:08.692Z,17.00
2017-08-12T13:02:37.404Z,17.00
2017-08-12T13:05:05.100Z,16.90
2017-08-12T13:07:32.978Z,16.90
2017-08-12T13:10:00.604Z,16.90
2017-08-12T13:12:28.902Z,17.20
2017-08-12T13:14:56.405Z,17.20
2017-08-12T13:17:23.901Z,17.10
2017-08-12T13:19:52.924Z,17.60
2017-08-12T13:22:23.246Z,17.60
2017-08-12T13:24:51.520Z,17.70
2017-08-12T13:27:19.277Z,17.80
2017-08-12T13:29:47.577Z,17.80
2017-08-12T13:32:15.356Z,17.70
2017-08-12T13:34:43.077Z,18.10
2017-08-12T13:37:11.703Z,18.20
2017-08-12T13:39:39.232Z,18.30
2017-08-12T13:42:06.724Z,18.50
2017-08-12T13:44:34.479Z,18.50
2017-08-12T13:47:02.063Z,18.70
2017-08-12T13:49:31.638Z,18.50
2017-08-12T13:51:59.760Z,18.50
2017-08-12T13:54:29.195Z,18.40
2017-08-12T13:56:56.948Z,18.40
2017-08-12T13:59:24.924Z,18.30
2017-08-12T14:01:52.444Z,18.10
2017-08-12T14:04:19.941Z,18.20
2017-08-12T14:06:48.073Z,18.50
2017-08-12T14:09:17.001Z,18.50
2017-08-12T14:11:46.685Z,18.50
2017-08-12T14:14:14.504Z,18.20
2017-08-12T14:16:43.302Z,17.50
2017-08-12T14:19:12.500Z,17.40
2017-08-12T14:21:41.120Z,17.40
2017-08-12T14:24:13.404Z,17.20
2017-08-12T14:26:41.178Z,17.20
2017-08-12T14:29:08.929Z,17.30
2017-08-12T14:31:37.703Z,17.40
2017-08-12T14:34:05.327Z,17.40
2017-08-12T14:36:33.925Z,17.40
2017-08-12T14:39:02.532Z,17.60
2017-08-12T14:41:30.981Z,18.00
2017-08-12T14:43:58.603Z,18.40
2017-08-12T14:46:26.202Z,18.80
2017-08-12T14:48:55.435Z,18.90
2017-08-12T14:51:22.954Z,18.80
2017-08-12T14:53:50.937Z,18.90
2017-08-12T14:56:19.477Z,19.10
2017-08-12T14:58:47.736Z,18.70
2017-08-12T15:01:15.255Z,18.70
2017-08-12T15:03:42.752Z,18.50
2017-08-12T15:06:11.719Z,18.40
2017-08-12T15:08:40.186Z,18.50
2017-08-12T15:11:09.705Z,18.40
2017-08-12T15:13:37.262Z,18.10
2017-08-12T15:16:05.865Z,17.90
2017-08-12T15:18:34.327Z,18.00
2017-08-12T15:21:02.069Z,18.00
2017-08-12T15:23:30.202Z,17.90
2017-08-12T15:25:58.101Z,17.70
2017-08-12T15:28:25.792Z,17.80
2017-08-12T15:30:53.921Z,18.00
2017-08-12T15:33:21.436Z,18.10
2017-08-12T15:35:49.702Z,18.40
2017-08-12T15:38:18.101Z,18.40
2017-08-12T15:40:46.306Z,18.50
2017-08-12T15:43:14.977Z,18.20
2017-08-12T15:45:43.023Z,18.30
2017-08-12T15:48:11.702Z,18.30
2017-08-12T15:50:40.952Z,18.40
2017-08-12T15:53:09.582Z,18.30
2017-08-12T15:55:38.021Z,18.40
2017-08-12T15:58:05.530Z,18.20
2017-08-12T16:00:33.844Z,18.00
2017-08-12T16:03:01.824Z,17.80
2017-08-12T16:05:30.143Z,17.70
2017-08-12T16:07:58.717Z,17.80
2017-08-12T16:10:27.249Z,18.00
2017-08-12T16:12:54.754Z,18.00
2017-08-12T16:15:23.052Z,18.40
2017-08-12T16:17:50.550Z,18.30
2017-08-12T16:20:19.325Z,18.60
2017-08-12T16:22:48.210Z,18.60
2017-08-12T16:25:15.933Z,18.40
2017-08-12T16:27:43.801Z,18.40
2017-08-12T16:30:11.605Z,18.30
2017-08-12T16:32:39.842Z,18.30
2017-08-12T16:35:07.603Z,18.30
2017-08-12T16:37:35.924Z,18.10
2017-08-12T16:40:03.653Z,18.00
2017-08-12T16:42:31.437Z,17.70
2017-08-12T16:44:59.677Z,17.70
2017-08-12T16:47:27.716Z,17.70
2017-08-12T16:49:55.236Z,17.50
2017-08-12T16:52:22.747Z,17.50
2017-08-12T16:54:51.302Z,17.30
2017-08-12T16:57:18.865Z,17.20
2017-08-12T16:59:46.721Z,17.10
2017-08-12T17:02:14.264Z,17.00
2017-08-12T17:04:42.009Z,17.00
2017-08-12T17:07:09.801Z,16.90
2017-08-12T17:09:37.317Z,16.90
2017-08-12T17:12:05.102Z,16.80
2017-08-12T17:14:32.601Z,16.70
2017-08-12T17:17:00.905Z,16.70
2017-08-12T17:19:28.417Z,16.60
2017-08-12T17:21:56.254Z,16.70
2017-08-12T17:24:23.760Z,16.70
2017-08-12T17:26:51.402Z,16.70
2017-08-12T17:29:18.966Z,16.60
2017-08-12T17:31:46.490Z,16.50
2017-08-12T17:34:13.988Z,16.60
2017-08-12T17:36:42.321Z,16.50
2017-08-12T17:39:10.030Z,16.50
2017-08-12T17:41:38.664Z,16.40
2017-08-12T17:44:06.166Z,16.40
2017-08-12T17:46:34.441Z,16.20
2017-08-12T17:49:03.385Z,16.00
2017-08-12T17:51:30.898Z,16.00
2017-08-12T17:53:59.125Z,15.90
2017-08-12T17:56:26.812Z,15.70
2017-08-12T17:58:56.425Z,15.40
2017-08-12T18:01:24.955Z,15.30
2017-08-12T18:03:53.325Z,15.30
2017-08-12T18:06:21.349Z,15.30
2017-08-12T18:08:49.716Z,15.20
2017-08-12T18:11:17.217Z,15.20
2017-08-12T18:13:44.744Z,15.20
2017-08-12T18:16:13.017Z,15.00
2017-08-12T18:18:41.322Z,15.00
2017-08-12T18:21:08.941Z,15.00
2017-08-12T18:23:36.439Z,15.00
2017-08-12T18:26:08.043Z,15.00
2017-08-12T18:28:36.080Z,14.90
2017-08-12T18:31:03.708Z,14.90
2017-08-12T18:33:31.261Z,14.90
2017-08-12T18:36:00.119Z,14.80
2017-08-12T18:38:28.041Z,14.80
2017-08-12T18:40:57.603Z,14.60
2017-08-12T18:43:25.181Z,14.60
2017-08-12T18:45:53.344Z,14.60
2017-08-12T18:48:21.902Z,14.60
2017-08-12T18:50:49.681Z,14.50
2017-08-12T18:53:18.209Z,14.60
2017-08-12T18:55:45.807Z,14.50
2017-08-12T18:58:14.348Z,14.50
2017-08-12T19:00:41.851Z,14.40
2017-08-12T19:03:10.139Z,14.50
2017-08-12T19:05:37.951Z,14.50
2017-08-12T19:08:05.601Z,14.60
2017-08-12T19:10:33.109Z,14.60
2017-08-12T19:13:02.361Z,14.60
2017-08-12T19:15:30.007Z,14.60
2017-08-12T19:17:57.805Z,14.60
2017-08-12T19:20:25.319Z,14.60
2017-08-12T19:22:52.829Z,14.60
2017-08-12T19:25:20.353Z,14.60
2017-08-12T19:27:48.120Z,14.60
2017-08-12T19:30:15.638Z,14.60
2017-08-12T19:32:43.703Z,14.60
2017-08-12T19:35:11.525Z,14.60
2017-08-12T19:37:39.234Z,14.60
2017-08-12T19:40:06.982Z,14.60
2017-08-12T19:42:35.459Z,14.70
2017-08-12T19:45:05.081Z,14.70
2017-08-12T19:47:33.151Z,14.70
2017-08-12T19:50:01.017Z,14.70
2017-08-12T19:52:28.813Z,14.70
2017-08-12T19:54:56.317Z,14.80
2017-08-12T19:57:24.876Z,14.80
2017-08-12T19:59:52.634Z,14.80
2017-08-12T20:02:20.228Z,14.80
2017-08-12T20:04:47.742Z,14.90
2017-08-12T20:07:16.222Z,14.80
2017-08-12T20:09:43.721Z,14.80
2017-08-12T20:12:11.525Z,14.70
2017-08-12T20:14:39.082Z,14.70
2017-08-12T20:17:06.610Z,14.80
2017-08-12T20:19:34.128Z,14.80
2017-08-12T20:22:03.021Z,14.80
2017-08-12T20:24:32.110Z,14.70
2017-08-12T20:27:00.625Z,14.70
2017-08-12T20:29:28.227Z,14.80
2017-08-12T20:31:57.312Z,14.80
2017-08-12T20:34:25.077Z,14.70
2017-08-12T20:36:53.702Z,14.70
2017-08-12T20:39:22.129Z,14.60
2017-08-12T20:41:52.802Z,14.60
2017-08-12T20:44:26.051Z,14.60
2017-08-12T20:46:57.302Z,14.50
2017-08-12T20:49:28.206Z,14.50
2017-08-12T20:51:59.584Z,14.40
2017-08-12T20:54:28.756Z,14.30
2017-08-12T20:56:58.533Z,14.30
2017-08-12T20:59:28.703Z,14.20
2017-08-12T21:01:57.507Z,14.20
2017-08-12T21:04:25.119Z,14.20
2017-08-12T21:06:55.200Z,14.20
2017-08-12T21:09:24.703Z,14.20
2017-08-12T21:11:55.602Z,14.20
2017-08-12T21:14:25.601Z,14.20
2017-08-12T21:16:54.703Z,14.20
2017-08-12T21:19:25.289Z,14.30
2017-08-12T21:21:53.306Z,14.40
2017-08-12T21:24:24.701Z,14.40
2017-08-12T21:26:54.746Z,14.40
2017-08-12T21:29:23.713Z,14.40
2017-08-12T21:31:53.862Z,14.40
2017-08-12T21:34:24.920Z,14.40
2017-08-12T21:36:55.036Z,14.40
2017-08-12T21:39:25.995Z,14.40
2017-08-12T21:41:58.075Z,14.40
2017-08-12T21:44:29.235Z,14.50
2017-08-12T21:47:01.061Z,14.50
2017-08-12T21:49:31.329Z,14.50
2017-08-12T21:52:01.689Z,14.50
2017-08-12T21:54:30.172Z,14.40
2017-08-12T21:56:59.274Z,14.40
2017-08-12T21:59:29.318Z,14.40
2017-08-12T22:01:58.507Z,14.40
2017-08-12T22:04:29.811Z,14.30
2017-08-12T22:06:59.771Z,14.30
2017-08-12T22:09:29.204Z,14.30
2017-08-12T22:11:58.934Z,14.30
2017-08-12T22:14:27.405Z,14.30
2017-08-12T22:16:55.605Z,14.40
2017-08-12T22:19:25.702Z,14.40
2017-08-12T22:21:55.158Z,14.50
2017-08-12T22:24:26.197Z,14.50
2017-08-12T22:26:56.279Z,14.50
2017-08-12T22:29:28.302Z,14.50
2017-08-12T22:31:58.556Z,14.50
2017-08-12T22:34:31.119Z,14.50
2017-08-12T22:36:59.405Z,14.50
2017-08-12T22:39:28.908Z,14.50
2017-08-12T22:41:57.020Z,14.50
